createdAt,value
2019-04-28T00:02:27.865Z,18.11
2019-04-28T00:04:59.179Z,18.11
2019-04-28T00:07:32.223Z,18.00
2019-04-28T00:10:05.275Z,17.99
2019-04-28T00:12:38.488Z,17.97
2019-04-28T00:15:10.896Z,17.88
2019-04-28T00:17:42.736Z,17.73
2019-04-28T00:20:32.356Z,17.82
2019-04-28T00:23:08.296Z,17.76
2019-04-28T00:25:43.556Z,17.68
2019-04-28T00:28:14.887Z,17.78
2019-04-28T00:30:46.621Z,17.75
2019-04-28T00:33:18.342Z,17.70
2019-04-28T00:35:51.517Z,17.69
2019-04-28T00:38:24.178Z,17.72
2019-04-28T00:40:55.772Z,17.82
2019-04-28T00:43:27.804Z,17.81
2019-04-28T00:46:00.966Z,17.85
2019-04-28T00:48:33.660Z,17.88
2019-04-28T00:51:05.288Z,17.85
2019-04-28T00:53:36.946Z,17.85
2019-04-28T00:56:08.618Z,17.82
2019-04-28T00:58:41.775Z,17.79
2019-04-28T01:01:17.808Z,17.74
2019-04-28T01:03:49.404Z,17.73
2019-04-28T01:06:22.197Z,17.66
2019-04-28T01:08:54.996Z,17.62
2019-04-28T01:11:26.579Z,17.62
2019-04-28T01:13:59.097Z,17.61
2019-04-28T01:16:39.859Z,17.60
2019-04-28T01:19:12.648Z,17.67
2019-04-28T01:21:57.878Z,17.67
2019-04-28T01:24:29.753Z,17.66
2019-04-28T01:27:02.127Z,17.54
2019-04-28T01:29:34.970Z,17.32
2019-04-28T01:32:16.962Z,17.29
2019-04-28T01:34:49.839Z,16.95
2019-04-28T01:37:21.444Z,16.61
2019-04-28T01:39:53.135Z,16.48
2019-04-28T01:42:25.507Z,16.52
2019-04-28T01:44:57.109Z,16.62
2019-04-28T01:47:30.549Z,16.66
2019-04-28T01:50:02.222Z,16.72
2019-04-28T01:52:34.020Z,16.77
2019-04-28T01:55:06.755Z,16.84
2019-04-28T01:57:41.328Z,16.87
2019-04-28T02:00:24.575Z,16.97
2019-04-28T02:02:50.377Z,16.97
2019-04-28T02:05:22.416Z,16.99
2019-04-28T02:07:55.477Z,17.00
2019-04-28T02:10:26.936Z,17.00
2019-04-28T02:12:59.906Z,16.95
2019-04-28T02:15:31.801Z,16.83
2019-04-28T02:18:03.417Z,16.82
2019-04-28T02:20:35.094Z,16.84
2019-04-28T02:23:09.881Z,16.91
2019-04-28T02:25:41.573Z,16.90
2019-04-28T02:28:13.025Z,16.93
2019-04-28T02:30:49.400Z,16.89
2019-04-28T02:33:17.971Z,16.88
2019-04-28T02:35:51.123Z,16.85
2019-04-28T02:38:22.823Z,16.77
2019-04-28T02:40:54.254Z,16.82
2019-04-28T02:43:25.823Z,16.86
2019-04-28T02:45:57.789Z,16.86
2019-04-28T02:48:31.016Z,16.87
2019-04-28T02:51:04.071Z,16.75
2019-04-28T02:53:37.215Z,16.75
2019-04-28T02:56:11.045Z,16.79
2019-04-28T02:58:41.982Z,16.72
2019-04-28T03:01:25.041Z,16.81
2019-04-28T03:03:46.696Z,16.76
2019-04-28T03:06:20.538Z,16.78
2019-04-28T03:08:51.135Z,16.76
2019-04-28T03:11:22.505Z,16.83
2019-04-28T03:13:53.953Z,16.88
2019-04-28T03:16:26.535Z,16.91
2019-04-28T03:18:57.906Z,16.89
2019-04-28T03:21:31.293Z,16.92
2019-04-28T03:24:02.758Z,16.80
2019-04-28T03:26:44.893Z,16.81
2019-04-28T03:29:20.785Z,16.76
2019-04-28T03:32:16.583Z,16.77
2019-04-28T03:34:46.073Z,16.72
2019-04-28T03:37:17.702Z,16.64
2019-04-28T03:39:50.411Z,16.66
2019-04-28T03:42:22.221Z,16.67
2019-04-28T03:44:54.445Z,16.61
2019-04-28T03:47:25.792Z,16.67
2019-04-28T03:49:57.128Z,16.70
2019-04-28T03:52:28.435Z,16.77
2019-04-28T03:55:00.523Z,16.87
2019-04-28T03:57:32.414Z,16.78
2019-04-28T04:00:05.701Z,16.81
2019-04-28T04:02:41.189Z,16.88
2019-04-28T04:05:12.160Z,16.87
2019-04-28T04:07:44.055Z,16.88
2019-04-28T04:10:30.546Z,16.88
2019-04-28T04:13:06.110Z,16.91
2019-04-28T04:15:49.164Z,16.93
2019-04-28T04:18:21.043Z,16.98
2019-04-28T04:20:52.652Z,16.98
2019-04-28T04:23:24.035Z,16.95
2019-04-28T04:25:55.411Z,16.89
2019-04-28T04:28:26.695Z,16.94
2019-04-28T04:31:02.483Z,16.91
2019-04-28T04:33:31.334Z,16.91
2019-04-28T04:36:02.907Z,16.94
2019-04-28T04:38:34.700Z,16.88
2019-04-28T04:41:06.368Z,16.99
2019-04-28T04:43:37.637Z,17.04
2019-04-28T04:46:22.114Z,16.95
2019-04-28T04:48:54.844Z,17.04
2019-04-28T04:51:26.303Z,17.18
2019-04-28T04:54:00.694Z,17.33
2019-04-28T04:56:30.955Z,17.42
2019-04-28T04:59:02.935Z,17.40
2019-04-28T05:01:54.182Z,17.35
2019-04-28T05:04:29.817Z,17.30
2019-04-28T05:07:01.326Z,17.35
2019-04-28T05:09:32.745Z,17.36
2019-04-28T05:12:04.055Z,17.43
2019-04-28T05:14:36.409Z,17.41
2019-04-28T05:17:07.876Z,17.42
2019-04-28T05:19:40.188Z,17.57
2019-04-28T05:22:12.513Z,17.52
2019-04-28T05:24:46.232Z,17.53
2019-04-28T05:27:23.954Z,17.61
2019-04-28T05:29:51.895Z,17.53
2019-04-28T05:32:23.300Z,17.44
2019-04-28T05:34:54.744Z,17.42
2019-04-28T05:37:26.122Z,17.42
2019-04-28T05:39:57.508Z,17.44
2019-04-28T05:42:30.226Z,17.43
2019-04-28T05:45:01.758Z,17.43
2019-04-28T05:47:33.262Z,17.39
2019-04-28T05:50:12.685Z,17.23
2019-04-28T05:52:57.840Z,17.20
2019-04-28T05:55:31.893Z,17.13
2019-04-28T05:58:04.897Z,17.11
2019-04-28T06:00:56.384Z,17.04
2019-04-28T06:03:30.233Z,17.09
2019-04-28T06:06:01.849Z,17.02
2019-04-28T06:08:37.946Z,17.02
2019-04-28T06:11:27.498Z,17.02
2019-04-28T06:13:59.968Z,17.03
2019-04-28T06:16:31.487Z,16.92
2019-04-28T06:19:03.381Z,16.93
2019-04-28T06:21:34.935Z,16.93
2019-04-28T06:24:06.527Z,16.97
2019-04-28T06:26:38.046Z,16.87
2019-04-28T06:29:09.569Z,16.94
2019-04-28T06:31:41.087Z,16.95
2019-04-28T06:34:14.084Z,17.02
2019-04-28T06:36:45.732Z,16.93
2019-04-28T06:39:17.627Z,16.87
2019-04-28T06:41:49.122Z,16.76
2019-04-28T06:44:22.479Z,16.70
2019-04-28T06:46:54.132Z,16.39
2019-04-28T06:49:25.515Z,16.39
2019-04-28T06:51:56.798Z,16.43
2019-04-28T06:54:28.304Z,16.09
2019-04-28T06:57:00.008Z,16.02
2019-04-28T06:59:31.587Z,15.93
2019-04-28T07:02:03.136Z,15.82
2019-04-28T07:04:34.746Z,15.92
2019-04-28T07:07:06.370Z,15.91
2019-04-28T07:09:37.903Z,15.69
2019-04-28T07:12:09.540Z,15.70
2019-04-28T07:14:41.016Z,15.72
2019-04-28T07:17:12.899Z,15.81
2019-04-28T07:19:46.048Z,15.88
2019-04-28T07:22:24.785Z,15.95
2019-04-28T07:24:56.444Z,16.07
2019-04-28T07:27:28.209Z,16.27
2019-04-28T07:29:59.966Z,16.45
2019-04-28T07:32:31.466Z,16.62
2019-04-28T07:35:02.962Z,16.92
2019-04-28T07:37:34.547Z,16.62
2019-04-28T07:40:07.033Z,16.88
2019-04-28T07:42:38.542Z,17.14
2019-04-28T07:45:10.603Z,17.41
2019-04-28T07:47:42.072Z,17.48
2019-04-28T07:50:14.432Z,17.68
2019-04-28T07:52:50.600Z,17.54
2019-04-28T07:55:22.057Z,17.70
2019-04-28T07:57:53.585Z,17.91
2019-04-28T08:00:29.557Z,18.11
2019-04-28T08:03:00.924Z,18.25
2019-04-28T08:05:32.559Z,18.40
2019-04-28T08:08:04.085Z,18.51
2019-04-28T08:10:35.671Z,18.79
2019-04-28T08:13:07.191Z,18.75
2019-04-28T08:15:38.900Z,18.62
2019-04-28T08:18:10.444Z,19.00
2019-04-28T08:20:42.085Z,19.07
2019-04-28T08:23:13.740Z,19.18
2019-04-28T08:25:45.325Z,19.30
2019-04-28T08:28:16.843Z,19.27
2019-04-28T08:30:48.296Z,19.37
2019-04-28T08:33:37.019Z,19.41
2019-04-28T08:36:08.609Z,19.31
2019-04-28T08:38:40.048Z,19.40
2019-04-28T08:41:11.390Z,19.51
2019-04-28T08:43:42.776Z,19.67
2019-04-28T08:46:14.306Z,19.79
2019-04-28T08:48:45.789Z,19.87
2019-04-28T08:51:17.309Z,19.99
2019-04-28T08:53:48.818Z,19.99
2019-04-28T08:56:20.280Z,20.37
2019-04-28T08:58:51.843Z,20.41
2019-04-28T09:01:23.471Z,20.78
2019-04-28T09:03:55.045Z,20.97
2019-04-28T09:06:27.453Z,21.18
2019-04-28T09:08:59.029Z,21.40
2019-04-28T09:11:30.642Z,21.32
2019-04-28T09:14:02.280Z,21.22
2019-04-28T09:16:33.827Z,21.02
2019-04-28T09:19:05.429Z,20.99
2019-04-28T09:21:36.964Z,20.94
2019-04-28T09:24:08.349Z,21.09
2019-04-28T09:26:40.393Z,21.11
2019-04-28T09:29:11.890Z,21.25
2019-04-28T09:31:43.358Z,21.18
2019-04-28T09:34:27.580Z,21.02
2019-04-28T09:36:48.013Z,21.08
2019-04-28T09:39:23.493Z,21.14
2019-04-28T09:42:13.189Z,21.14
2019-04-28T09:44:44.707Z,21.18
2019-04-28T09:47:16.266Z,21.22
2019-04-28T09:49:47.518Z,21.24
2019-04-28T09:52:18.815Z,21.34
2019-04-28T09:54:50.270Z,21.36
2019-04-28T09:57:24.266Z,21.25
2019-04-28T09:59:55.793Z,21.29
2019-04-28T10:02:27.206Z,21.50
2019-04-28T10:04:58.637Z,21.58
2019-04-28T10:07:31.252Z,21.48
2019-04-28T10:10:02.974Z,21.57
2019-04-28T10:12:34.662Z,21.46
2019-04-28T10:15:10.377Z,21.45
2019-04-28T10:17:41.858Z,21.44
2019-04-28T10:20:13.935Z,21.57
2019-04-28T10:22:45.343Z,21.52
2019-04-28T10:25:17.124Z,21.49
2019-04-28T10:27:48.459Z,21.54
2019-04-28T10:30:19.857Z,21.46
2019-04-28T10:32:51.350Z,21.46
2019-04-28T10:35:22.846Z,21.45
2019-04-28T10:37:54.284Z,21.45
2019-04-28T10:40:56.985Z,21.51
2019-04-28T10:43:28.498Z,21.46
2019-04-28T10:45:59.851Z,21.53
2019-04-28T10:48:31.194Z,21.59
2019-04-28T10:51:02.560Z,21.62
2019-04-28T10:53:33.929Z,21.62
2019-04-28T10:56:06.362Z,21.79
2019-04-28T10:58:37.896Z,22.00
2019-04-28T11:01:09.329Z,22.13
2019-04-28T11:03:42.446Z,22.23
2019-04-28T11:06:14.109Z,22.32
2019-04-28T11:08:59.602Z,22.54
2019-04-28T11:11:31.223Z,22.66
2019-04-28T11:14:02.654Z,22.38
2019-04-28T11:16:35.228Z,22.46
2019-04-28T11:19:06.712Z,22.39
2019-04-28T11:21:38.301Z,22.46
2019-04-28T11:24:09.903Z,22.32
2019-04-28T11:26:41.260Z,22.18
2019-04-28T11:29:13.839Z,22.01
2019-04-28T11:31:45.341Z,21.97
2019-04-28T11:34:18.338Z,21.90
2019-04-28T11:36:49.769Z,21.82
2019-04-28T11:39:22.866Z,21.64
2019-04-28T11:41:55.674Z,21.61
2019-04-28T11:44:27.247Z,21.54
2019-04-28T11:46:58.708Z,21.52
2019-04-28T11:49:30.125Z,21.77
2019-04-28T11:52:01.466Z,21.82
2019-04-28T11:54:32.819Z,22.04
2019-04-28T11:57:05.716Z,22.12
2019-04-28T11:59:37.298Z,22.14
2019-04-28T12:02:08.726Z,22.23
2019-04-28T12:04:40.395Z,22.19
2019-04-28T12:07:11.697Z,22.19
2019-04-28T12:09:47.652Z,22.21
2019-04-28T12:12:36.234Z,22.19
2019-04-28T12:15:21.709Z,22.17
2019-04-28T12:18:10.754Z,22.21
2019-04-28T12:20:42.150Z,21.99
2019-04-28T12:23:13.879Z,21.73
2019-04-28T12:25:45.233Z,21.64
2019-04-28T12:28:16.666Z,21.70
2019-04-28T12:30:48.056Z,21.64
2019-04-28T12:33:19.528Z,21.63
2019-04-28T12:35:50.978Z,21.63
2019-04-28T12:38:22.446Z,21.66
2019-04-28T12:40:53.891Z,21.55
2019-04-28T12:43:25.309Z,20.85
2019-04-28T12:45:56.700Z,20.66
2019-04-28T12:48:28.160Z,20.66
2019-04-28T12:50:59.534Z,20.78
2019-04-28T12:53:31.320Z,20.76
2019-04-28T12:56:02.755Z,20.60
2019-04-28T12:58:34.219Z,20.66
2019-04-28T13:01:15.891Z,20.53
2019-04-28T13:03:57.859Z,20.44
2019-04-28T13:06:30.987Z,20.49
2019-04-28T13:09:02.470Z,20.42
2019-04-28T13:11:35.115Z,20.40
2019-04-28T13:14:06.545Z,20.34
2019-04-28T13:16:38.149Z,20.44
2019-04-28T13:19:09.599Z,20.31
2019-04-28T13:21:40.975Z,20.16
2019-04-28T13:24:12.272Z,20.18
2019-04-28T13:26:43.804Z,20.16
2019-04-28T13:29:15.210Z,20.16
2019-04-28T13:31:46.708Z,20.11
2019-04-28T13:34:19.739Z,20.14
2019-04-28T13:36:51.063Z,20.15
2019-04-28T13:39:24.268Z,20.02
2019-04-28T13:41:55.758Z,19.98
2019-04-28T13:44:45.044Z,20.08
2019-04-28T13:47:16.467Z,20.13
2019-04-28T13:49:49.577Z,20.04
2019-04-28T13:52:21.055Z,20.05
2019-04-28T13:54:57.125Z,20.16
2019-04-28T13:57:28.679Z,20.31
2019-04-28T14:00:04.477Z,20.23
2019-04-28T14:02:37.717Z,20.30
2019-04-28T14:05:28.015Z,20.22
2019-04-28T14:08:01.158Z,20.20
2019-04-28T14:10:32.596Z,20.21
2019-04-28T14:13:04.198Z,20.40
2019-04-28T14:15:35.698Z,20.25
2019-04-28T14:18:07.218Z,20.30
2019-04-28T14:20:38.723Z,20.51
2019-04-28T14:23:10.150Z,20.50
2019-04-28T14:25:41.619Z,20.54
2019-04-28T14:28:12.950Z,20.75
2019-04-28T14:30:44.343Z,20.84
2019-04-28T14:33:16.658Z,20.86
2019-04-28T14:35:48.382Z,20.85
2019-04-28T14:38:19.725Z,20.86
2019-04-28T14:40:51.326Z,20.89
2019-04-28T14:43:22.796Z,20.98
2019-04-28T14:45:54.220Z,21.20
2019-04-28T14:48:25.791Z,21.22
2019-04-28T14:50:57.391Z,21.29
2019-04-28T14:53:29.080Z,21.32
2019-04-28T14:56:00.630Z,21.40
2019-04-28T14:58:32.184Z,21.66
2019-04-28T15:01:11.212Z,21.71
2019-04-28T15:03:53.184Z,21.83
2019-04-28T15:06:29.464Z,21.70
2019-04-28T15:09:05.249Z,22.28
2019-04-28T15:11:42.818Z,22.62
2019-04-28T15:14:14.333Z,22.53
2019-04-28T15:16:45.785Z,22.34
2019-04-28T15:19:17.207Z,22.01
2019-04-28T15:21:48.599Z,21.56
2019-04-28T15:24:20.103Z,21.48
2019-04-28T15:26:51.556Z,21.38
2019-04-28T15:29:22.966Z,21.13
2019-04-28T15:31:54.332Z,21.11
2019-04-28T15:34:25.691Z,21.13
2019-04-28T15:37:09.176Z,21.11
2019-04-28T15:39:30.371Z,20.96
2019-04-28T15:42:01.732Z,20.82
2019-04-28T15:44:34.696Z,20.65
2019-04-28T15:47:06.058Z,20.49
2019-04-28T15:49:38.689Z,20.51
2019-04-28T15:52:10.043Z,20.52
2019-04-28T15:54:42.854Z,20.50
2019-04-28T15:57:14.306Z,20.53
2019-04-28T15:59:45.785Z,20.51
2019-04-28T16:02:17.204Z,20.49
2019-04-28T16:04:48.651Z,20.47
2019-04-28T16:07:25.191Z,20.49
2019-04-28T16:09:57.752Z,20.38
2019-04-28T16:12:29.342Z,20.32
2019-04-28T16:15:00.802Z,20.31
2019-04-28T16:17:32.391Z,20.27
2019-04-28T16:20:07.337Z,20.15
2019-04-28T16:22:38.781Z,20.13
2019-04-28T16:25:10.170Z,20.06
2019-04-28T16:27:41.471Z,20.01
2019-04-28T16:30:13.080Z,19.93
2019-04-28T16:32:44.547Z,19.87
2019-04-28T16:35:16.127Z,19.82
2019-04-28T16:37:47.477Z,19.73
2019-04-28T16:40:19.033Z,19.66
2019-04-28T16:42:51.279Z,19.62
2019-04-28T16:45:22.677Z,19.60
2019-04-28T16:47:54.049Z,19.52
2019-04-28T16:50:25.575Z,19.46
2019-04-28T16:52:56.948Z,19.44
2019-04-28T16:55:45.289Z,19.34
2019-04-28T16:58:18.333Z,19.27
2019-04-28T17:00:57.453Z,19.27
2019-04-28T17:03:30.626Z,19.25
2019-04-28T17:06:03.388Z,19.22
2019-04-28T17:08:34.916Z,19.18
2019-04-28T17:11:06.369Z,19.13
2019-04-28T17:13:38.090Z,19.16
2019-04-28T17:16:10.044Z,19.13
2019-04-28T17:18:42.148Z,19.12
2019-04-28T17:21:13.507Z,19.11
2019-04-28T17:23:44.976Z,19.07
2019-04-28T17:26:16.406Z,19.07
2019-04-28T17:28:47.801Z,19.04
2019-04-28T17:31:19.170Z,19.02
2019-04-28T17:33:51.068Z,19.00
2019-04-28T17:36:24.240Z,19.07
2019-04-28T17:38:55.860Z,19.04
2019-04-28T17:41:28.529Z,19.05
2019-04-28T17:43:59.864Z,19.04
2019-04-28T17:46:31.379Z,19.09
2019-04-28T17:49:02.914Z,19.13
2019-04-28T17:51:34.384Z,19.18
2019-04-28T17:54:06.013Z,19.20
2019-04-28T17:56:37.469Z,19.23
2019-04-28T17:59:09.814Z,19.28
2019-04-28T18:01:48.702Z,19.27
2019-04-28T18:04:36.998Z,19.28
2019-04-28T18:07:13.174Z,19.24
2019-04-28T18:09:44.496Z,19.25
2019-04-28T18:12:15.992Z,19.20
2019-04-28T18:14:49.012Z,19.19
2019-04-28T18:17:31.317Z,19.17
2019-04-28T18:20:02.932Z,19.11
2019-04-28T18:22:35.849Z,19.06
2019-04-28T18:25:07.788Z,19.05
2019-04-28T18:27:39.091Z,19.07
2019-04-28T18:30:12.459Z,19.08
2019-04-28T18:32:54.877Z,19.06
2019-04-28T18:35:33.772Z,19.10
2019-04-28T18:38:16.180Z,19.15
2019-04-28T18:41:05.504Z,19.21
2019-04-28T18:43:47.944Z,19.17
2019-04-28T18:46:24.150Z,19.13
2019-04-28T18:48:55.669Z,19.10
2019-04-28T18:51:27.178Z,19.12
2019-04-28T18:53:58.516Z,19.12
2019-04-28T18:56:31.866Z,19.03
2019-04-28T18:59:03.333Z,19.05
2019-04-28T19:01:42.437Z,18.94
2019-04-28T19:04:13.814Z,18.90
2019-04-28T19:06:45.441Z,18.79
2019-04-28T19:09:24.336Z,18.75
2019-04-28T19:12:06.330Z,18.71
2019-04-28T19:14:39.280Z,18.71
2019-04-28T19:17:14.949Z,18.68
2019-04-28T19:19:46.392Z,18.62
2019-04-28T19:22:17.830Z,18.60
2019-04-28T19:24:49.352Z,18.59
2019-04-28T19:27:21.035Z,18.61
2019-04-28T19:29:52.529Z,18.64
2019-04-28T19:32:24.042Z,18.67
2019-04-28T19:34:55.635Z,18.66
2019-04-28T19:37:27.218Z,18.68
2019-04-28T19:39:59.852Z,18.69
2019-04-28T19:42:31.495Z,18.72
2019-04-28T19:45:03.050Z,18.75
2019-04-28T19:47:34.916Z,18.74
2019-04-28T19:50:07.728Z,18.76
2019-04-28T19:52:42.526Z,18.76
2019-04-28T19:55:23.846Z,18.79
2019-04-28T19:58:15.061Z,18.82
2019-04-28T20:00:48.161Z,18.83
2019-04-28T20:03:19.714Z,18.82
2019-04-28T20:05:51.387Z,18.86
2019-04-28T20:08:23.928Z,18.80
2019-04-28T20:10:56.388Z,18.77
2019-04-28T20:13:27.701Z,18.75
2019-04-28T20:15:59.386Z,18.67
2019-04-28T20:18:32.563Z,18.65
2019-04-28T20:21:04.193Z,18.55
2019-04-28T20:23:36.630Z,18.44
2019-04-28T20:26:08.062Z,18.45
2019-04-28T20:28:39.527Z,18.33
2019-04-28T20:31:10.974Z,18.26
2019-04-28T20:33:43.899Z,18.20
2019-04-28T20:36:26.263Z,18.17
2019-04-28T20:39:02.012Z,18.18
2019-04-28T20:41:35.049Z,18.14
2019-04-28T20:44:06.690Z,18.12
2019-04-28T20:46:38.001Z,18.08
2019-04-28T20:49:09.489Z,18.06
2019-04-28T20:51:42.562Z,18.06
2019-04-28T20:54:14.070Z,18.05
2019-04-28T20:56:47.126Z,18.09
2019-04-28T20:59:18.737Z,18.07
2019-04-28T21:01:50.214Z,17.98
2019-04-28T21:04:21.849Z,17.96
2019-04-28T21:06:53.431Z,17.93
2019-04-28T21:09:25.014Z,17.90
2019-04-28T21:11:56.398Z,17.89
2019-04-28T21:14:27.836Z,17.86
2019-04-28T21:16:59.230Z,17.81
2019-04-28T21:19:30.847Z,17.78
2019-04-28T21:22:02.528Z,17.77
2019-04-28T21:24:50.213Z,17.80
2019-04-28T21:27:21.752Z,17.75
2019-04-28T21:29:53.493Z,17.72
2019-04-28T21:32:24.930Z,17.73
2019-04-28T21:34:57.208Z,17.74
2019-04-28T21:37:28.652Z,17.72
2019-04-28T21:40:00.100Z,17.69
2019-04-28T21:42:45.232Z,17.68
2019-04-28T21:45:34.667Z,17.64
2019-04-28T21:48:06.062Z,17.59
2019-04-28T21:50:37.464Z,17.59
2019-04-28T21:53:09.023Z,17.57
2019-04-28T21:55:40.526Z,17.62
2019-04-28T21:58:11.870Z,17.56
2019-04-28T22:00:52.104Z,17.53
2019-04-28T22:03:26.720Z,17.48
2019-04-28T22:05:58.430Z,17.44
2019-04-28T22:08:29.896Z,17.39
2019-04-28T22:11:01.498Z,17.36
2019-04-28T22:13:33.157Z,17.38
2019-04-28T22:16:04.608Z,17.34
2019-04-28T22:18:36.034Z,17.34
2019-04-28T22:21:08.931Z,17.34
2019-04-28T22:23:59.027Z,17.27
2019-04-28T22:26:44.210Z,17.27
2019-04-28T22:29:16.666Z,17.23
2019-04-28T22:31:48.257Z,17.19
2019-04-28T22:34:19.670Z,17.18
2019-04-28T22:36:51.619Z,17.17
2019-04-28T22:39:23.053Z,17.19
2019-04-28T22:41:54.420Z,17.10
2019-04-28T22:44:30.504Z,17.08
2019-04-28T22:47:01.883Z,17.10
2019-04-28T22:49:33.384Z,17.12
2019-04-28T22:52:04.730Z,17.11
2019-04-28T22:54:50.724Z,17.15
2019-04-28T22:57:35.605Z,17.06
2019-04-28T23:00:11.724Z,17.05
2019-04-28T23:02:44.900Z,17.03
2019-04-28T23:05:16.322Z,17.03
2019-04-28T23:07:47.855Z,16.99
2019-04-28T23:10:19.204Z,16.99
2019-04-28T23:12:50.592Z,17.04
2019-04-28T23:15:22.116Z,16.99
2019-04-28T23:17:53.734Z,16.95
2019-04-28T23:20:26.880Z,16.95
2019-04-28T23:22:59.941Z,16.98
2019-04-28T23:25:31.243Z,17.02
2019-04-28T23:28:02.731Z,16.98
2019-04-28T23:30:39.875Z,16.99
2019-04-28T23:33:11.364Z,16.92
2019-04-28T23:35:42.823Z,16.92
2019-04-28T23:38:14.275Z,16.93
2019-04-28T23:40:56.888Z,16.84
2019-04-28T23:43:28.255Z,16.83
2019-04-28T23:45:59.548Z,16.77
2019-04-28T23:48:31.072Z,16.59
2019-04-28T23:51:09.818Z,16.49
2019-04-28T23:53:58.041Z,16.50
2019-04-28T23:56:29.408Z,16.37
2019-04-28T23:59:00.841Z,16.36
